Shawondassee, Connecticut
Current Conditions -  °F | °C
As of 12:53 AM on Friday 19 Dec 2014 (Local Time) from KWST Reporting Station
Overcast Overcast  
Wind Chill: 31°   Ceiling: 6500
Heat Index: 35°   Visibility: 10mi
Dew Point: 26°   Wind: 5mph
Humidity: 70%   Direction: 270°W
Pressure: 29.91"   Gusts: NA
Location:  41.3809°N, 71.9121°W
Report Text: KWST 190553Z AUTO 27004KT 10SM OVC065 02/M03 A2991 RMK AO2 SLP129 T00171033 10033 20011 50001
Loading
Personal Weather Stations






























Interactive Weather Map New forecast layout! Learn more

10-Day Weather Forecast

Advertisements
Track Severe Weather on mobile